Devers, Texas
Current Conditions -  °F | °C
As of 1:55 PM on Sunday 23 Nov 2014 (Local Time) from KBMT Reporting Station
Clear Clear  
Wind Chill: 23°   Ceiling: Unl
Heat Index: 23°   Visibility: 10mi
Dew Point: 14°   Wind: 13mph
Humidity: 57%   Direction: 210°SSW
Pressure: 29.56"   Gusts: 22mph
Location:  30.03°N, 94.59°W
Report Text: KBMT 231955Z AUTO 21011G19KT 10SM CLR 23/14 A2956 RMK AO2 T02290141
Loading
Personal Weather Stations






























Interactive Weather Map New forecast layout! Learn more

10-Day Weather Forecast

Advertisements
Track Severe Weather on mobile